Time;durP1;ratioP1;P1;durP2;ratioP2;P2;SDS_P1;SDS_P2;PMS_P1;PMS_P2;Temp;Humidity;BMP_temperature;BMP_pressure;BME280_temperature;BME280_humidity;BME280_pressure;Samples;Min_cycle;Max_cycle;Signal;HPM_P1;HPM_P2
2023/01/11 00:01:16;;;;;;;4.90;3.25;;;-4.50;80.40;;;;;;1880985;75;21581;-44
2023/01/11 00:03:45;;;;;;;1.90;1.62;;;-4.60;80.40;;;;;;1927577;74;21093;-43
2023/01/11 00:06:14;;;;;;;11.10;3.08;;;-4.60;80.40;;;;;;1881123;76;21045;-44
2023/01/11 00:08:44;;;;;;;6.72;3.50;;;-4.60;80.50;;;;;;1927546;74;21096;-44
2023/01/11 00:11:15;;;;;;;5.10;3.87;;;-4.60;80.80;;;;;;1881115;76;20986;-43
2023/01/11 00:13:44;;;;;;;7.20;3.08;;;-4.60;80.70;;;;;;1927743;74;21006;-44
2023/01/11 00:16:14;;;;;;;3.33;2.75;;;-4.60;80.50;;;;;;1881041;76;21100;-44
2023/01/11 00:18:42;;;;;;;2.75;2.55;;;-4.60;80.60;;;;;;1927584;74;20979;-45
2023/01/11 00:21:11;;;;;;;2.45;2.25;;;-4.60;80.70;;;;;;1881102;76;21100;-45
2023/01/11 00:23:40;;;;;;;14.13;3.20;;;-4.60;81.30;;;;;;1927602;74;21007;-43
2023/01/11 00:26:12;;;;;;;10.60;3.83;;;-4.60;80.70;;;;;;1927629;74;20979;-44
2023/01/11 00:28:41;;;;;;;9.45;3.65;;;-4.60;80.60;;;;;;1927591;74;21465;-44
2023/01/11 00:31:10;;;;;;;3.12;2.75;;;-4.60;80.90;;;;;;1881015;76;21152;-43
2023/01/11 00:33:39;;;;;;;3.62;3.22;;;-4.60;81.00;;;;;;1927532;74;21010;-45
2023/01/11 00:36:09;;;;;;;7.28;4.22;;;-4.50;81.30;;;;;;1880994;76;21018;-43
2023/01/11 00:38:50;;;;;;;7.42;4.20;;;-4.50;81.30;;;;;;1927509;74;21003;-44
2023/01/11 00:49:38;;;;;;;3.85;2.50;;;-4.00;80.90;;;;;;1880979;76;21042;-43
2023/01/11 00:52:08;;;;;;;7.95;4.85;;;-4.00;79.90;;;;;;1927460;74;21092;-43
2023/01/11 00:54:41;;;;;;;8.68;3.75;;;-4.00;80.00;;;;;;1880922;76;21085;-43
2023/01/11 00:57:10;;;;;;;3.42;3.05;;;-3.90;79.80;;;;;;1927447;74;21003;-43
2023/01/11 00:59:39;;;;;;;5.37;3.98;;;-4.00;80.10;;;;;;1881080;76;21108;-43
2023/01/11 01:02:09;;;;;;;4.70;3.40;;;-3.90;80.30;;;;;;1927482;74;21561;-44
2023/01/11 01:04:39;;;;;;;4.72;2.90;;;-3.90;80.20;;;;;;1880948;76;21100;-43
2023/01/11 01:07:08;;;;;;;5.60;3.42;;;-3.90;79.70;;;;;;1927548;74;21072;-43
2023/01/11 01:09:37;;;;;;;7.80;4.80;;;-3.90;80.30;;;;;;1881032;76;21049;-43
2023/01/11 01:12:08;;;;;;;4.65;3.92;;;-3.90;80.10;;;;;;1927477;74;21128;-44
2023/01/11 01:14:37;;;;;;;4.05;2.98;;;-3.90;80.40;;;;;;1880960;76;21029;-44
2023/01/11 01:17:07;;;;;;;12.80;5.08;;;-3.90;79.70;;;;;;1927436;74;21073;-43
2023/01/11 01:19:38;;;;;;;7.03;4.40;;;-3.90;80.50;;;;;;1927499;74;21112;-43
2023/01/11 01:22:07;;;;;;;8.78;4.30;;;-3.80;80.90;;;;;;1880980;76;21092;-43
2023/01/11 01:24:37;;;;;;;8.63;4.62;;;-3.70;80.70;;;;;;1927540;74;21124;-44
2023/01/11 01:27:06;;;;;;;7.28;5.20;;;-3.60;80.70;;;;;;1881064;76;21069;-43
2023/01/11 01:29:35;;;;;;;7.00;4.17;;;-3.50;80.50;;;;;;1927410;74;21088;-44
2023/01/11 01:32:04;;;;;;;6.47;3.45;;;-3.40;80.40;;;;;;1880954;76;21156;-43
2023/01/11 01:34:36;;;;;;;5.83;3.02;;;-3.30;79.90;;;;;;1927557;74;20995;-43
2023/01/11 01:37:05;;;;;;;9.50;4.50;;;-3.20;80.10;;;;;;1881200;76;21472;-44
2023/01/11 01:39:34;;;;;;;6.97;4.05;;;-3.20;79.90;;;;;;1927548;74;21006;-43
2023/01/11 01:42:04;;;;;;;6.87;3.60;;;-3.10;79.90;;;;;;1881086;76;21095;-43
2023/01/11 01:44:53;;;;;;;6.60;4.70;;;-3.10;79.90;;;;;;1927585;74;21538;-44
2023/01/11 01:47:27;;;;;;;9.00;4.00;;;-3.10;79.90;;;;;;1881094;76;21095;-43
2023/01/11 01:49:58;;;;;;;16.48;4.75;;;-3.00;79.60;;;;;;1927763;74;21596;-43
2023/01/11 01:52:28;;;;;;;6.62;3.62;;;-3.00;79.90;;;;;;1927624;74;21006;-43
2023/01/11 01:54:59;;;;;;;8.13;4.50;;;-3.00;79.80;;;;;;1881044;76;21057;-44
2023/01/11 01:57:31;;;;;;;7.53;4.80;;;-3.00;79.70;;;;;;1927754;74;20987;-43
2023/01/11 02:00:03;;;;;;;13.00;3.55;;;-3.00;79.60;;;;;;1881046;76;21061;-44
2023/01/11 02:02:35;;;;;;;5.92;4.78;;;-3.00;79.60;;;;;;1927612;74;21078;-43
2023/01/11 02:05:06;;;;;;;6.00;3.60;;;-3.00;79.90;;;;;;1881079;76;21010;-43
2023/01/11 02:07:37;;;;;;;7.50;4.20;;;-3.00;80.00;;;;;;1927558;74;21014;-44
2023/01/11 02:10:09;;;;;;;12.33;5.45;;;-3.00;80.00;;;;;;1881059;76;21062;-44
2023/01/11 02:12:44;;;;;;;6.47;3.98;;;-3.00;80.00;;;;;;1927737;74;21484;-43
2023/01/11 02:15:13;;;;;;;10.35;5.03;;;-3.00;79.70;;;;;;1881195;76;21030;-43
2023/01/11 02:17:43;;;;;;;49.88;19.35;;;-3.00;79.70;;;;;;1927600;74;21128;-43
2023/01/11 02:20:24;;;;;;;49.20;22.30;;;-3.00;79.40;;;;;;1927524;74;21038;-44
2023/01/11 02:23:21;;;;;;;64.97;28.50;;;-3.10;79.70;;;;;;1847948;77;21120;-43
2023/01/11 02:26:09;;;;;;;78.05;28.07;;;-3.10;79.90;;;;;;1926954;74;21022;-45
2023/01/11 02:28:47;;;;;;;20.65;10.55;;;-3.00;79.90;;;;;;1927632;74;21050;-45
2023/01/11 02:31:37;;;;;;;44.27;13.53;;;-3.10;79.80;;;;;;1927784;74;21082;-43
2023/01/11 02:34:11;;;;;;;41.77;18.17;;;-3.10;80.00;;;;;;1924552;74;21087;-43
2023/01/11 02:36:52;;;;;;;33.95;14.55;;;-3.00;80.00;;;;;;1924493;74;21011;-43
2023/01/11 02:39:38;;;;;;;11.18;7.20;;;-3.00;79.90;;;;;;1924766;74;21042;-44
2023/01/11 02:45:15;;;;;;;18.15;8.48;;;-3.10;80.40;;;;;;1924749;74;21098;-43
2023/01/11 02:47:48;;;;;;;15.48;7.55;;;-3.10;80.10;;;;;;1924802;74;21026;-44
2023/01/11 02:50:35;;;;;;;20.90;8.53;;;-3.10;80.20;;;;;;1924795;74;21147;-44
2023/01/11 02:53:22;;;;;;;23.38;9.85;;;-3.00;80.10;;;;;;1924784;74;20999;-43
2023/01/11 02:55:53;;;;;;;55.20;14.63;;;-3.00;80.00;;;;;;1887415;74;20999;-43
2023/01/11 02:58:24;;;;;;;26.57;10.95;;;-3.00;80.00;;;;;;1924682;74;21023;-43
2023/01/11 03:00:55;;;;;;;27.55;11.12;;;-3.00;80.00;;;;;;1924700;74;21010;-45
2023/01/11 03:03:32;;;;;;;30.77;10.08;;;-3.00;80.10;;;;;;1924664;74;20983;-43
2023/01/11 03:06:04;;;;;;;27.02;12.93;;;-3.00;80.00;;;;;;1923095;74;21477;-44
2023/01/11 03:08:55;;;;;;;22.98;10.88;;;-3.00;80.20;;;;;;1924619;74;20994;-43
2023/01/11 03:14:54;;;;;;;21.80;7.15;;;-3.00;80.10;;;;;;1924672;74;21022;-45
2023/01/11 03:17:47;;;;;;;15.98;7.25;;;-3.00;79.80;;;;;;1923035;74;21120;-43
2023/01/11 03:20:25;;;;;;;19.05;8.33;;;-3.00;79.80;;;;;;1924679;74;21089;-43
2023/01/11 03:23:03;;;;;;;28.17;9.65;;;-3.00;79.90;;;;;;1924870;74;20991;-43
2023/01/11 03:25:47;;;;;;;22.52;10.10;;;-3.10;79.90;;;;;;1924696;74;20979;-44
2023/01/11 03:28:18;;;;;;;21.15;8.13;;;-3.10;80.00;;;;;;1887313;74;21114;-43
2023/01/11 03:30:50;;;;;;;20.55;7.80;;;-3.10;80.00;;;;;;1923818;74;21065;-43
2023/01/11 03:33:39;;;;;;;14.60;9.33;;;-3.10;79.90;;;;;;1911369;74;21063;-44
2023/01/11 03:36:13;;;;;;;12.73;6.55;;;-3.10;80.00;;;;;;1879139;74;21077;-44
2023/01/11 03:38:54;;;;;;;16.57;8.23;;;-3.10;80.20;;;;;;1905425;75;21039;-44
2023/01/11 03:41:26;;;;;;;16.80;8.33;;;-3.10;80.00;;;;;;1904399;74;21481;-44
2023/01/11 03:43:57;;;;;;;13.10;6.75;;;-3.10;80.20;;;;;;1905239;75;21027;-43
2023/01/11 03:46:38;;;;;;;15.48;7.78;;;-3.10;80.10;;;;;;1905275;75;21007;-43
2023/01/11 03:49:13;;;;;;;10.50;7.50;;;-3.20;80.00;;;;;;1905245;75;21441;-43
2023/01/11 03:51:44;;;;;;;16.82;7.67;;;-3.20;80.00;;;;;;1898410;75;21509;-44
2023/01/11 03:54:15;;;;;;;22.85;9.43;;;-3.20;80.00;;;;;;1905074;74;21011;-44
2023/01/11 03:57:19;;;;;;;18.13;10.67;;;-3.20;80.00;;;;;;1905323;75;21547;-44
2023/01/11 03:59:50;;;;;;;34.67;16.02;;;-3.20;79.80;;;;;;1905195;75;21090;-43
2023/01/11 04:02:27;;;;;;;28.90;13.08;;;-3.30;79.90;;;;;;1905328;75;21427;-43
2023/01/11 04:04:56;;;;;;;21.23;10.32;;;-3.30;80.10;;;;;;1905250;75;20996;-43
2023/01/11 04:07:25;;;;;;;31.90;10.03;;;-3.30;80.00;;;;;;1905257;74;21035;-44
2023/01/11 04:09:54;;;;;;;49.83;17.77;;;-3.40;80.00;;;;;;1905216;75;21035;-44
2023/01/11 04:12:24;;;;;;;32.85;11.30;;;-3.40;79.90;;;;;;1905237;75;21031;-44
2023/01/11 04:14:53;;;;;;;31.05;11.83;;;-3.40;80.10;;;;;;1905180;75;20995;-44
2023/01/11 04:17:22;;;;;;;19.87;11.53;;;-3.40;80.30;;;;;;1905340;75;21089;-44
2023/01/11 04:19:51;;;;;;;20.60;7.70;;;-3.40;80.30;;;;;;1905242;75;21004;-45
2023/01/11 04:22:20;;;;;;;85.05;33.48;;;-3.40;80.10;;;;;;1905424;75;21039;-43
2023/01/11 04:24:49;;;;;;;44.08;20.65;;;-3.40;79.90;;;;;;1905280;75;21093;-44
2023/01/11 04:27:17;;;;;;;38.67;16.17;;;-3.30;80.20;;;;;;1905315;74;21201;-45
2023/01/11 04:29:47;;;;;;;57.27;26.42;;;-3.30;80.00;;;;;;1905233;75;21035;-43
2023/01/11 04:32:16;;;;;;;23.27;12.13;;;-3.30;80.00;;;;;;1905707;74;21031;-44
2023/01/11 04:34:45;;;;;;;39.10;13.80;;;-3.40;79.80;;;;;;1924643;74;21018;-43
2023/01/11 04:37:14;;;;;;;44.08;17.45;;;-3.40;80.00;;;;;;1924625;74;21105;-43
2023/01/11 04:39:43;;;;;;;23.22;14.58;;;-3.40;80.00;;;;;;1924592;74;21038;-43
2023/01/11 04:42:18;;;;;;;25.62;13.25;;;-3.40;80.10;;;;;;1924688;74;21007;-44
2023/01/11 04:44:49;;;;;;;42.15;13.88;;;-3.40;80.20;;;;;;1924668;74;21578;-44
2023/01/11 04:47:20;;;;;;;25.97;12.73;;;-3.40;80.00;;;;;;1924709;74;21054;-44
2023/01/11 04:49:50;;;;;;;33.02;13.98;;;-3.40;80.00;;;;;;1924688;74;21092;-43
2023/01/11 04:52:20;;;;;;;35.85;13.90;;;-3.40;80.00;;;;;;1924652;74;21083;-44
2023/01/11 04:54:51;;;;;;;36.48;14.63;;;-3.40;80.00;;;;;;1924676;74;21050;-44
2023/01/11 04:57:20;;;;;;;19.98;9.35;;;-3.40;80.10;;;;;;1924821;74;21035;-44
2023/01/11 04:59:49;;;;;;;19.70;9.93;;;-3.40;80.10;;;;;;1924592;74;21538;-43
2023/01/11 05:02:18;;;;;;;16.97;9.15;;;-3.30;80.00;;;;;;1924869;74;21606;-45
2023/01/11 05:04:47;;;;;;;27.82;8.35;;;-3.30;80.00;;;;;;1924578;74;21524;-49
2023/01/11 05:07:16;;;;;;;16.35;8.43;;;-3.30;80.00;;;;;;1924596;74;21027;-44
2023/01/11 05:09:45;;;;;;;12.85;6.70;;;-3.40;80.00;;;;;;1924716;74;21035;-43
2023/01/11 05:12:14;;;;;;;12.88;6.97;;;-3.30;80.00;;;;;;1924775;74;21402;-45
2023/01/11 05:14:43;;;;;;;23.83;7.70;;;-3.30;80.10;;;;;;1924720;74;21109;-43
2023/01/11 05:17:15;;;;;;;12.10;7.50;;;-3.30;80.00;;;;;;1924819;74;21022;-44
2023/01/11 05:19:44;;;;;;;17.80;8.63;;;-3.30;80.10;;;;;;1924765;74;21018;-43
2023/01/11 05:22:13;;;;;;;16.10;9.75;;;-3.30;80.10;;;;;;1924774;74;21015;-43
2023/01/11 05:24:42;;;;;;;19.82;9.33;;;-3.20;80.30;;;;;;1924873;74;21006;-44
2023/01/11 05:27:11;;;;;;;16.55;9.65;;;-3.20;80.20;;;;;;1931227;74;21062;-44
2023/01/11 05:29:42;;;;;;;14.78;9.00;;;-3.10;80.00;;;;;;1924800;74;21042;-44
2023/01/11 05:32:11;;;;;;;20.48;9.38;;;-3.10;79.80;;;;;;1924724;74;21030;-44
2023/01/11 05:34:40;;;;;;;21.62;9.40;;;-3.10;79.80;;;;;;1910436;74;21051;-44
2023/01/11 05:37:09;;;;;;;28.70;10.58;;;-3.10;79.70;;;;;;1905265;75;21448;-44
2023/01/11 05:39:38;;;;;;;20.23;9.13;;;-3.00;79.90;;;;;;1905328;75;21083;-44
2023/01/11 05:42:07;;;;;;;19.82;10.15;;;-3.00;79.70;;;;;;1905350;74;21450;-44
2023/01/11 05:47:23;;;;;;;51.53;10.10;;;-2.90;79.70;;;;;;1905395;74;21007;-43
2023/01/11 05:49:52;;;;;;;17.05;9.73;;;-2.90;79.90;;;;;;1905393;75;21101;-43
2023/01/11 05:52:22;;;;;;;30.45;9.18;;;-2.90;79.90;;;;;;1905432;75;21032;-43
2023/01/11 05:54:51;;;;;;;22.82;10.43;;;-2.90;79.90;;;;;;1905333;75;21035;-44
2023/01/11 05:57:20;;;;;;;22.50;11.03;;;-2.80;80.00;;;;;;1905418;75;21160;-44
2023/01/11 05:59:49;;;;;;;20.50;8.55;;;-2.70;79.90;;;;;;1905324;75;21056;-43
2023/01/11 06:02:18;;;;;;;26.40;9.10;;;-2.60;79.70;;;;;;1905407;75;21144;-44
2023/01/11 06:04:47;;;;;;;15.10;9.15;;;-2.60;79.70;;;;;;1905451;75;21039;-43
2023/01/11 06:07:16;;;;;;;23.20;11.08;;;-2.60;79.70;;;;;;1905312;75;21039;-43
2023/01/11 06:09:45;;;;;;;28.73;10.82;;;-2.50;79.60;;;;;;1905464;75;21019;-43
2023/01/11 06:12:14;;;;;;;20.37;10.15;;;-2.50;79.60;;;;;;1905474;74;21027;-44
2023/01/11 06:14:43;;;;;;;19.77;9.70;;;-2.50;79.80;;;;;;1905401;75;21043;-44
2023/01/11 06:17:13;;;;;;;16.05;8.23;;;-2.40;79.50;;;;;;1905333;74;21027;-43
2023/01/11 06:19:41;;;;;;;24.18;11.57;;;-2.40;79.10;;;;;;1905453;74;21015;-45
2023/01/11 06:22:10;;;;;;;22.00;11.83;;;-2.40;79.50;;;;;;1905332;75;21105;-43
2023/01/11 06:24:39;;;;;;;22.98;10.43;;;-2.40;79.60;;;;;;1905395;75;21027;-43
2023/01/11 06:27:09;;;;;;;24.95;9.13;;;-2.30;79.50;;;;;;1905379;75;21066;-44
2023/01/11 06:29:38;;;;;;;21.27;8.85;;;-2.30;79.30;;;;;;1905481;75;21031;-44
2023/01/11 06:32:07;;;;;;;23.42;10.38;;;-2.30;79.40;;;;;;1905371;75;21133;-44
2023/01/11 06:34:36;;;;;;;19.35;10.08;;;-2.30;79.30;;;;;;1905342;75;21549;-44
2023/01/11 06:37:05;;;;;;;14.68;8.25;;;-2.30;78.80;;;;;;1905329;74;21101;-44
2023/01/11 06:39:34;;;;;;;11.12;7.40;;;-2.30;79.10;;;;;;1905356;75;21087;-44
2023/01/11 06:42:03;;;;;;;12.93;7.37;;;-2.30;79.10;;;;;;1905351;75;21450;-44
2023/01/11 06:44:32;;;;;;;16.55;8.58;;;-2.30;79.10;;;;;;1905350;75;21004;-44
2023/01/11 06:47:01;;;;;;;11.48;7.60;;;-2.30;79.40;;;;;;1905430;75;20984;-45
2023/01/11 06:49:30;;;;;;;19.60;9.18;;;-2.30;79.50;;;;;;1905369;75;21031;-44
2023/01/11 06:51:59;;;;;;;15.13;8.45;;;-2.20;78.90;;;;;;1905443;75;21044;-43
2023/01/11 06:54:28;;;;;;;19.02;8.55;;;-2.20;77.90;;;;;;1905329;75;21034;-44
2023/01/11 06:56:57;;;;;;;20.00;8.28;;;-2.30;77.50;;;;;;1905249;75;21043;-44
2023/01/11 06:59:26;;;;;;;23.38;9.65;;;-2.40;78.10;;;;;;1905284;75;21005;-44
2023/01/11 07:01:55;;;;;;;12.07;7.22;;;-2.50;78.80;;;;;;1905278;75;21089;-44
2023/01/11 07:04:24;;;;;;;11.65;7.00;;;-2.50;77.90;;;;;;1905298;74;21549;-47
2023/01/11 07:06:54;;;;;;;10.00;6.45;;;-2.50;78.60;;;;;;1905302;75;21008;-44
2023/01/11 07:09:23;;;;;;;14.43;6.97;;;-2.50;78.90;;;;;;1905287;74;21438;-43
2023/01/11 07:11:52;;;;;;;12.68;7.92;;;-2.60;78.30;;;;;;1905288;75;21547;-45
2023/01/11 07:14:21;;;;;;;14.18;6.67;;;-2.60;77.60;;;;;;1905559;75;21007;-45
2023/01/11 07:16:50;;;;;;;13.68;6.60;;;-2.70;78.70;;;;;;1905416;75;21027;-44
2023/01/11 07:19:19;;;;;;;10.78;7.90;;;-2.60;77.70;;;;;;1905369;75;21055;-44
2023/01/11 07:21:48;;;;;;;11.85;7.45;;;-2.60;79.00;;;;;;1905285;75;21097;-44
2023/01/11 07:24:18;;;;;;;16.87;8.45;;;-2.60;79.20;;;;;;1905329;75;21067;-45
2023/01/11 07:26:47;;;;;;;10.05;4.75;;;-2.50;79.10;;;;;;1905308;75;20999;-44
2023/01/11 07:29:16;;;;;;;9.53;6.42;;;-2.40;77.40;;;;;;1905267;74;20999;-44
2023/01/11 07:31:46;;;;;;;19.32;6.28;;;-2.40;78.00;;;;;;1869005;77;21003;-44
2023/01/11 07:34:15;;;;;;;8.03;5.35;;;-2.40;77.80;;;;;;1905615;74;21024;-46
2023/01/11 07:36:44;;;;;;;13.58;5.80;;;-2.40;78.10;;;;;;1924697;74;21123;-44
2023/01/11 07:39:13;;;;;;;11.10;6.47;;;-2.40;78.90;;;;;;1924716;74;21102;-44
2023/01/11 07:44:30;;;;;;;6.55;5.30;;;-2.30;79.20;;;;;;1924002;74;21082;-46
2023/01/11 07:46:58;;;;;;;15.60;9.18;;;-2.10;78.80;;;;;;1895872;73;21080;-47
2023/01/11 07:49:28;;;;;;;20.62;7.33;;;-2.00;78.10;;;;;;1897953;73;21439;-48
2023/01/11 07:51:57;;;;;;;8.03;6.33;;;-2.00;78.90;;;;;;1914065;73;21117;-46
2023/01/11 07:54:26;;;;;;;3.80;2.85;;;-1.90;79.20;;;;;;1934045;73;21035;-47
2023/01/11 07:56:55;;;;;;;13.30;7.17;;;-2.00;77.00;;;;;;1941089;73;21030;-46
2023/01/11 07:59:25;;;;;;;8.08;5.03;;;-2.00;78.20;;;;;;1911156;73;21001;-46
2023/01/11 08:01:54;;;;;;;12.35;5.10;;;-2.00;77.40;;;;;;1890403;76;21012;-46
2023/01/11 08:04:23;;;;;;;13.58;4.67;;;-2.10;77.80;;;;;;1891100;76;21028;-47
2023/01/11 08:06:52;;;;;;;8.90;4.17;;;-2.10;78.20;;;;;;1891382;76;21091;-46
2023/01/11 08:09:21;;;;;;;7.30;4.62;;;-2.10;78.70;;;;;;1891241;76;21064;-45
2023/01/11 08:14:40;;;;;;;3.67;3.37;;;-2.10;77.50;;;;;;1891756;73;21115;-46
2023/01/11 08:17:12;;;;;;;2.20;1.90;;;-2.00;78.10;;;;;;1918169;73;21090;-45
2023/01/11 08:19:42;;;;;;;7.17;5.20;;;-2.10;77.10;;;;;;1924419;74;21022;-46
2023/01/11 08:22:11;;;;;;;6.72;4.50;;;-2.10;77.40;;;;;;1902746;73;21108;-47
2023/01/11 08:24:40;;;;;;;18.12;5.50;;;-2.10;79.20;;;;;;1891358;76;21042;-45
2023/01/11 08:27:09;;;;;;;2.95;2.70;;;-2.10;79.10;;;;;;1891190;75;21097;-45
2023/01/11 08:29:43;;;;;;;5.15;4.28;;;-1.90;77.20;;;;;;1890906;76;21211;-46
2023/01/11 08:32:09;;;;;;;7.50;5.05;;;-1.90;76.90;;;;;;1889153;75;21548;-46
2023/01/11 08:34:37;;;;;;;3.52;2.75;;;-2.00;77.40;;;;;;1890722;76;21626;-46
2023/01/11 08:37:06;;;;;;;6.40;4.15;;;-2.00;77.20;;;;;;1881429;74;21492;-44
2023/01/11 08:39:35;;;;;;;11.78;5.35;;;-2.00;77.80;;;;;;1871784;76;21045;-46
2023/01/11 08:42:05;;;;;;;6.17;3.58;;;-2.00;77.90;;;;;;1872794;75;21096;-46
2023/01/11 08:44:34;;;;;;;8.10;4.58;;;-1.90;78.10;;;;;;1891442;75;21032;-44
2023/01/11 08:47:03;;;;;;;2.70;2.40;;;-1.80;78.20;;;;;;1883705;75;21111;-45
2023/01/11 08:49:32;;;;;;;5.72;3.92;;;-1.70;77.10;;;;;;1889148;75;21160;-45
2023/01/11 08:52:01;;;;;;;9.20;4.05;;;-1.70;76.10;;;;;;1903704;75;21084;-45
2023/01/11 08:54:29;;;;;;;5.35;3.33;;;-1.60;76.30;;;;;;1902662;75;21098;-45
2023/01/11 08:56:58;;;;;;;1.85;1.72;;;-1.50;75.60;;;;;;1902636;75;21079;-45
2023/01/11 08:59:28;;;;;;;4.00;2.10;;;-1.50;75.50;;;;;;1902614;75;21067;-46
2023/01/11 09:01:57;;;;;;;8.18;2.85;;;-1.30;74.70;;;;;;1902580;75;21023;-48
2023/01/11 09:04:26;;;;;;;7.58;2.50;;;-1.30;74.90;;;;;;1902821;75;21160;-46
2023/01/11 09:06:55;;;;;;;5.00;2.80;;;-1.30;73.70;;;;;;1902759;75;21047;-46
2023/01/11 09:09:24;;;;;;;4.70;3.50;;;-1.20;73.50;;;;;;1897403;75;21080;-49
2023/01/11 09:11:53;;;;;;;4.55;2.55;;;-1.20;74.40;;;;;;1872141;77;21076;-48
2023/01/11 09:14:23;;;;;;;3.20;2.42;;;-1.20;73.70;;;;;;1872020;76;21139;-47
2023/01/11 09:16:53;;;;;;;2.60;1.85;;;-1.10;72.50;;;;;;1872099;76;21471;-50
2023/01/11 09:19:22;;;;;;;6.78;5.62;;;-1.10;73.20;;;;;;1872137;77;21061;-45
2023/01/11 09:21:52;;;;;;;2.35;2.15;;;-1.10;73.50;;;;;;1871843;75;21664;-45
2023/01/11 09:24:21;;;;;;;6.92;3.67;;;-1.00;73.60;;;;;;1896632;75;21019;-48
2023/01/11 09:26:50;;;;;;;6.80;4.90;;;-1.00;73.90;;;;;;1886982;75;21048;-47
2023/01/11 09:29:20;;;;;;;4.20;3.17;;;-0.90;73.20;;;;;;1889224;75;21022;-48
2023/01/11 09:31:48;;;;;;;7.20;3.35;;;-0.80;73.20;;;;;;1903817;75;21163;-55
2023/01/11 09:34:19;;;;;;;6.03;2.52;;;-0.80;71.70;;;;;;1904458;74;21027;-57
2023/01/11 09:36:49;;;;;;;3.58;3.17;;;-0.70;71.60;;;;;;1914324;74;21058;-56
2023/01/11 09:39:21;;;;;;;2.90;2.37;;;-0.70;72.30;;;;;;1923923;74;21050;-57
2023/01/11 09:42:00;;;;;;;5.62;3.92;;;-0.70;70.50;;;;;;1923916;74;21038;-57
2023/01/11 09:44:29;;;;;;;7.25;5.47;;;-0.70;71.30;;;;;;1922003;74;21481;-49
2023/01/11 09:47:07;;;;;;;6.08;2.90;;;-0.60;72.50;;;;;;1923967;74;21023;-47
2023/01/11 09:49:40;;;;;;;3.77;2.15;;;-0.60;70.50;;;;;;1910349;74;21030;-46
2023/01/11 09:52:23;;;;;;;6.15;3.75;;;-0.50;70.00;;;;;;1890767;76;21548;-44
2023/01/11 09:54:52;;;;;;;5.87;2.67;;;-0.50;70.50;;;;;;1890947;76;21169;-45
2023/01/11 09:57:41;;;;;;;4.03;2.60;;;-0.50;70.00;;;;;;1894702;74;21158;-45
2023/01/11 10:00:22;;;;;;;5.05;3.67;;;-0.40;70.00;;;;;;1922961;74;21104;-45
2023/01/11 10:03:13;;;;;;;8.35;3.30;;;-0.30;70.10;;;;;;1890458;76;21469;-44
2023/01/11 10:05:54;;;;;;;9.98;3.70;;;-0.30;70.30;;;;;;1890664;76;21043;-45
2023/01/11 10:08:42;;;;;;;7.80;2.87;;;-0.30;70.90;;;;;;1890690;76;21038;-47
2023/01/11 10:11:26;;;;;;;2.42;2.22;;;-0.20;69.70;;;;;;1888892;76;21094;-45
2023/01/11 10:14:00;;;;;;;4.58;2.77;;;-0.20;69.30;;;;;;1890590;75;21003;-46
2023/01/11 10:16:34;;;;;;;3.47;3.17;;;-0.10;68.10;;;;;;1890728;76;21030;-45
2023/01/11 10:19:12;;;;;;;4.80;2.80;;;-0.10;67.70;;;;;;1919163;74;21614;-45
2023/01/11 10:21:53;;;;;;;5.87;2.42;;;-0.10;69.20;;;;;;1908668;74;21043;-45
2023/01/11 10:24:29;;;;;;;2.50;2.25;;;0.00;68.50;;;;;;1899938;74;21119;-63
2023/01/11 10:27:07;;;;;;;3.95;3.20;;;0.00;68.00;;;;;;1923799;74;21199;-61
2023/01/11 10:32:44;;;;;;;3.47;3.08;;;0.00;68.80;;;;;;1923558;74;21042;-47
2023/01/11 14:57:40;;;;;;;8.93;4.97;;;0.50;73.30;;;;;;1959214;73;26214;-46
2023/01/11 15:00:20;;;;;;;16.70;7.62;;;0.50;73.90;;;;;;1905607;75;21129;-45
2023/01/11 15:02:57;;;;;;;16.97;7.28;;;0.40;74.00;;;;;;1918384;75;21410;-44
2023/01/11 15:05:31;;;;;;;19.12;8.83;;;0.50;74.20;;;;;;1918629;75;21476;-44
2023/01/11 15:08:21;;;;;;;11.65;6.05;;;0.50;74.40;;;;;;1918640;75;21450;-46
2023/01/11 15:11:06;;;;;;;31.80;7.22;;;0.60;74.40;;;;;;1917404;74;21097;-45
2023/01/11 15:13:50;;;;;;;19.35;5.97;;;0.60;74.30;;;;;;1916397;74;21105;-45
2023/01/11 15:19:29;;;;;;;10.45;5.90;;;0.60;74.80;;;;;;1918430;74;21038;-45
2023/01/11 15:22:00;;;;;;;13.78;5.75;;;0.70;75.00;;;;;;1918296;74;21179;-46
2023/01/11 15:24:32;;;;;;;11.83;6.55;;;0.70;75.00;;;;;;1918462;74;21096;-44
2023/01/11 15:27:03;;;;;;;14.23;6.97;;;0.80;75.10;;;;;;1917784;74;21030;-45
2023/01/11 15:29:40;;;;;;;14.00;7.62;;;0.80;75.00;;;;;;1918352;74;21007;-45
2023/01/11 15:32:33;;;;;;;14.23;7.03;;;0.80;75.00;;;;;;1918345;74;21116;-45
2023/01/11 15:35:19;;;;;;;16.67;7.12;;;0.80;75.20;;;;;;1918449;75;21002;-45
2023/01/11 15:37:51;;;;;;;15.43;7.85;;;0.80;75.20;;;;;;1907051;74;21038;-46
2023/01/11 15:40:29;;;;;;;16.17;7.62;;;0.80;75.30;;;;;;1918417;74;21120;-45
2023/01/11 15:43:23;;;;;;;15.63;8.43;;;0.80;75.60;;;;;;1895058;75;21507;-46
2023/01/11 15:48:56;;;;;;;20.68;8.98;;;0.90;75.80;;;;;;1918415;75;21085;-46
2023/01/11 15:51:50;;;;;;;31.02;10.68;;;0.90;75.70;;;;;;1916802;74;21050;-46
2023/01/11 15:54:31;;;;;;;19.20;9.78;;;1.00;75.50;;;;;;1918547;75;21051;-46
2023/01/11 15:57:11;;;;;;;27.22;10.58;;;1.00;75.80;;;;;;1796509;79;21572;-49
2023/01/11 15:59:49;;;;;;;38.63;12.78;;;1.00;75.80;;;;;;1917477;74;21442;-45
2023/01/11 16:02:26;;;;;;;37.15;12.50;;;1.00;76.40;;;;;;1918001;75;21089;-44
2023/01/11 16:05:16;;;;;;;42.43;14.35;;;1.00;75.90;;;;;;1906405;75;21023;-44
2023/01/11 16:08:23;;;;;;;38.45;10.93;;;1.00;76.10;;;;;;1917707;75;21034;-45
2023/01/11 16:11:10;;;;;;;27.75;10.13;;;1.10;76.20;;;;;;1917232;74;21011;-44
2023/01/11 16:13:57;;;;;;;36.03;12.07;;;1.10;76.20;;;;;;1917715;75;21562;-45
2023/01/11 16:16:30;;;;;;;35.33;12.13;;;1.10;75.80;;;;;;1916726;74;21043;-45
2023/01/11 16:19:08;;;;;;;42.70;13.95;;;1.10;76.30;;;;;;1917485;75;21007;-45
2023/01/11 16:21:40;;;;;;;32.23;12.95;;;1.10;76.30;;;;;;1913867;75;21599;-46
2023/01/11 16:24:11;;;;;;;40.58;11.20;;;1.10;76.30;;;;;;1917391;75;21073;-45
2023/01/11 16:26:41;;;;;;;19.02;7.50;;;1.00;76.50;;;;;;1917223;74;21100;-44
2023/01/11 16:29:16;;;;;;;18.95;9.70;;;1.00;76.50;;;;;;1917352;75;21093;-45
2023/01/11 16:31:52;;;;;;;;;;;1.00;76.70;;;;;;1920051;74;21035;-45
2023/01/11 16:34:21;;;;;;;12.30;8.20;;;1.00;76.90;;;;;;1917364;75;20143;-45
2023/01/11 16:36:51;;;;;;;14.15;7.03;;;1.00;76.70;;;;;;1917312;75;21023;-45
2023/01/11 16:39:27;;;;;;;12.13;7.17;;;0.90;76.80;;;;;;1917302;75;21019;-45
2023/01/11 16:42:05;;;;;;;12.03;7.60;;;0.90;77.00;;;;;;1917341;75;21404;-45
2023/01/11 16:45:00;;;;;;;9.43;6.55;;;0.90;77.00;;;;;;1917367;75;20975;-45
2023/01/11 16:47:29;;;;;;;19.25;9.45;;;0.90;77.10;;;;;;1917450;75;21057;-45
2023/01/11 16:50:19;;;;;;;17.30;7.47;;;0.90;77.00;;;;;;1917324;75;21058;-46
2023/01/11 16:52:51;;;;;;;12.05;7.12;;;0.90;77.20;;;;;;1916966;74;21086;-45
2023/01/11 16:55:26;;;;;;;21.37;6.53;;;0.90;77.30;;;;;;1917236;75;21007;-46
2023/01/11 16:57:58;;;;;;;18.35;8.65;;;1.00;77.30;;;;;;1923178;74;21042;-46
2023/01/11 17:00:34;;;;;;;14.78;8.20;;;0.90;77.30;;;;;;1924717;74;21074;-45
2023/01/11 17:03:04;;;;;;;25.48;9.88;;;1.00;77.40;;;;;;1924345;74;21042;-46
2023/01/11 17:05:33;;;;;;;22.65;9.58;;;0.90;77.50;;;;;;1923228;74;21046;-45
2023/01/11 17:08:05;;;;;;;25.12;11.00;;;1.00;77.50;;;;;;1924644;74;21055;-47
2023/01/11 17:10:34;;;;;;;26.52;11.40;;;0.90;77.50;;;;;;1919523;74;21109;-48
2023/01/11 17:13:50;;;;;;;21.42;10.10;;;0.90;77.50;;;;;;1924683;74;21042;-46
2023/01/11 17:15:55;;;;;;;25.43;9.98;;;0.90;77.60;;;;;;1921506;74;21019;-48
2023/01/11 17:18:24;;;;;;;38.98;11.15;;;0.90;77.70;;;;;;1924401;74;21076;-46
2023/01/11 17:20:54;;;;;;;25.72;10.05;;;0.80;77.70;;;;;;1924668;74;21084;-47
2023/01/11 17:23:23;;;;;;;20.12;10.00;;;0.80;77.90;;;;;;1924661;74;21022;-48
2023/01/11 17:25:57;;;;;;;19.15;9.48;;;0.80;77.90;;;;;;1924689;74;21031;-46
2023/01/11 17:28:25;;;;;;;21.10;9.73;;;0.80;77.90;;;;;;1924813;74;21038;-45
2023/01/11 17:30:55;;;;;;;27.55;9.83;;;0.80;78.10;;;;;;1924637;74;21077;-49
2023/01/11 17:33:32;;;;;;;25.17;9.10;;;0.80;78.10;;;;;;1924688;74;20999;-50
2023/01/11 17:36:02;;;;;;;23.57;9.00;;;0.70;78.10;;;;;;1924618;74;21076;-49
2023/01/11 17:38:32;;;;;;;29.18;9.28;;;0.70;78.10;;;;;;1924809;74;21563;-48
2023/01/11 17:45:11;;;;;;;28.98;8.73;;;0.70;78.20;;;;;;1924724;74;21027;-49
2023/01/11 17:46:25;;;;;;;28.30;9.05;;;0.60;78.20;;;;;;1924685;74;21031;-45
2023/01/11 17:49:10;;;;;;;46.48;9.13;;;0.60;77.90;;;;;;1958988;73;22074;-43
2023/01/11 17:51:40;;;;;;;14.15;6.95;;;0.60;78.40;;;;;;1915857;74;21602;-44
2023/01/11 17:54:21;;;;;;;24.55;7.90;;;0.60;78.50;;;;;;1918519;75;21097;-46
2023/01/11 17:56:58;;;;;;;13.68;6.97;;;0.60;78.40;;;;;;1917948;74;21531;-46
2023/01/11 17:59:29;;;;;;;18.48;8.40;;;0.50;78.30;;;;;;1918403;75;21076;-44
2023/01/11 18:02:10;;;;;;;22.32;10.10;;;0.50;78.60;;;;;;1918345;75;21019;-45
2023/01/11 18:04:39;;;;;;;18.85;8.33;;;0.40;78.70;;;;;;1918528;75;20987;-45
2023/01/11 18:07:16;;;;;;;24.15;8.25;;;0.40;78.80;;;;;;1918424;75;21088;-44